Latest Weather Observations for Mornington Island Airport

IDQ60801

Issued at 9:02 pm EST Tuesday 31 March 2015 (issued every 30 minutes, with the page automatically refreshed every 10 minutes)

About weather observations | Map of weather stations | Latest weather observations for QLD | Other Formats
Station Details ID: 029182 Name: MORNINGTON ISLAND AIRPORT Lat: -16.66 Lon: 139.17 Height: 9.0 m
Data from the previous 72 hours. | See also: Recent months at Mornington Island Airport
Date/Time
EST
Temp
°C
App
Temp
°C
Dew
Point
Rel
Hum
%
Delta-T
°C
Wind Press
QNH
hPa
Press
MSL
hPa
Rain
since 9 am
mm
Dir
 
Spd
km/h
Gust
km/h
Spd
kts
Gust
kts
31/09:00pm 27.9 30.1 21.9 70 4.0 NNW 13 15 7 8 1012.1 1012.0 0.0
31/08:30pm 27.9 30.4 21.7 69 4.2 NNW 11 13 6 7 1011.9 1011.8 0.0
31/08:00pm 28.1 30.9 21.6 68 4.4 NNW 9 11 5 6 1011.8 1011.7 0.0
31/07:30pm 28.5 31.3 21.5 66 4.7 N 9 11 5 6 1011.7 1011.6 0.0
31/07:00pm 29.0 32.1 21.5 64 5.0 N 7 11 4 6 1011.6 1011.5 0.0
31/06:30pm 29.8 32.4 21.2 60 5.8 N 9 13 5 7 1011.4 1011.3 0.0
31/06:00pm 30.6 32.2 20.8 56 6.5 NNW 13 15 7 8 1011.3 1011.2 0.0
31/05:30pm 31.5 33.4 21.4 55 6.8 NNW 13 15 7 8 1011.1 1011.0 0.0
31/05:00pm 31.6 33.2 21.4 54 6.9 NW 15 19 8 10 1010.9 1010.8 0.0
31/04:30pm 32.3 33.9 21.5 53 7.3 NW 15 20 8 11 1010.8 1010.7 0.0
31/04:00pm 32.1 33.5 21.0 52 7.5 NW 15 19 8 10 1010.7 1010.6 0.0
31/03:30pm 32.0 33.3 20.9 52 7.4 NW 15 20 8 11 1011.0 1010.9 0.0
31/03:00pm 31.9 33.3 21.1 52 7.3 NW 15 20 8 11 1011.3 1011.2 0.0
31/02:30pm 32.3 34.0 20.9 51 7.6 WNW 13 19 7 10 1011.8 1011.7 0.0
31/02:00pm 32.6 33.8 21.5 52 7.5 NW 17 19 9 10 1012.2 1012.1 0.0
31/01:30pm 31.6 31.7 19.9 50 7.7 WNW 19 22 10 12 1012.6 1012.5 0.0
31/01:00pm 32.9 34.1 21.4 50 7.8 WNW 17 22 9 12 1012.9 1012.8 0.0
31/12:30pm 31.9 34.3 20.8 51 7.4 NNW 9 15 5 8 1013.4 1013.3 0.0
31/12:00pm 31.4 33.9 21.8 56 6.5 NNE 11 24 6 13 1013.8 1013.7 0.0
31/11:30am 31.1 33.0 22.1 58 6.1 NW 15 26 8 14 1014.2 1014.1 0.0
31/11:00am 31.9 34.3 20.8 51 7.4 ENE 9 17 5 9 1014.6 1014.5 0.0
31/10:30am 31.8 34.3 21.0 52 7.2 E 9 13 5 7 1014.9 1014.8 0.0
31/10:00am 32.0 33.8 20.3 50 7.8 ENE 11 19 6 10 1014.9 1014.8 0.0
31/09:30am 31.9 34.4 21.1 52 7.2 NE 9 17 5 9 1014.9 1014.8 0.0
31/09:00am 31.2 33.1 20.5 53 7.1 ENE 11 15 6 8 1014.8 1014.7 0.0
31/08:30am 30.3 33.0 21.4 59 6.0 E 9 13 5 7 1014.7 1014.6 0.0
31/08:00am 28.3 32.1 22.8 72 3.7 ENE 7 11 4 6 1014.4 1014.3 0.0
31/07:30am 26.3 30.1 22.4 79 2.6 ENE 6 9 3 5 1014.0 1013.9 0.0
31/07:00am 25.0 28.3 21.9 83 2.1 ENE 7 9 4 5 1013.6 1013.5 0.0
31/06:30am 25.0 28.5 21.9 83 2.1 ENE 6 7 3 4 1013.2 1013.1 0.0
31/06:00am 24.9 28.3 21.6 82 2.2 NE 6 7 3 4 1012.8 1012.7 0.0
31/05:30am 25.2 29.8 21.7 81 2.3 CALM 0 0 0 0 1012.3 1012.2 0.0
31/05:00am 26.3 30.1 21.7 76 3.1 WNW 4 7 2 4 1011.9 1011.8 0.0
31/04:30am 27.2 30.8 22.4 75 3.2 WNW 7 9 4 5 1011.6 1011.5 0.0
31/04:00am 26.4 29.7 22.5 79 2.6 WNW 9 11 5 6 1011.5 1011.4 0.0
31/03:30am 25.8 29.4 22.1 80 2.5 WNW 6 7 3 4 1011.5 1011.4 0.0
31/03:00am 25.7 30.4 22.0 80 2.5 CALM 0 0 0 0 1011.6 1011.5 0.0
31/02:30am 25.9 30.7 22.2 80 2.5 CALM 0 6 0 3 1011.9 1011.8 0.0
31/02:00am 25.8 29.4 22.1 80 2.5 NE 6 6 3 3 1012.2 1012.1 0.0
31/01:30am 25.6 29.1 21.9 80 2.5 N 6 7 3 4 1012.4 1012.3 0.0
31/01:00am 25.8 28.9 22.1 80 2.5 NNE 9 11 5 6 1012.7 1012.6 0.0
31/12:30am 26.4 30.0 22.0 77 2.9 N 6 7 3 4 1013.1 1013.0 0.0
31/12:00am 27.1 30.5 22.7 77 3.0 N 9 9 5 5 1013.5 1013.4 0.0
 
Date/Time
EST
Temp
°C
App
Temp
°C
Dew
Point
Rel
Hum
%
Delta-T
°C
Wind Press
QNH
hPa
Press
MSL
hPa
Rain
since 9 am
mm
Dir
 
Spd
km/h
Gust
km/h
Spd
kts
Gust
kts
30/11:30pm 27.1 30.8 22.5 76 3.1 NNW 7 7 4 4 1013.4 1013.3 0.0
30/11:00pm 27.3 31.1 22.7 76 3.1 NNW 7 7 4 4 1013.7 1013.6 0.0
30/10:30pm 27.2 30.9 22.6 76 3.1 NNW 7 9 4 5 1013.8 1013.7 0.0
30/10:00pm 27.3 31.2 22.5 75 3.2 N 6 7 3 4 1013.9 1013.8 0.0
30/09:30pm 27.3 30.9 22.0 73 3.6 N 6 6 3 3 1014.0 1013.9 0.0
30/09:00pm 27.7 32.4 22.0 71 3.8 CALM 0 6 0 3 1014.0 1013.9 0.0
30/08:30pm 27.9 31.3 21.7 69 4.2 N 6 6 3 3 1013.9 1013.8 0.0
30/08:00pm 28.1 32.3 20.9 65 4.8 CALM 0 0 0 0 1013.6 1013.5 0.0
30/07:30pm 28.5 32.7 21.0 64 5.0 CALM 0 0 0 0 1013.3 1013.2 0.0
30/07:00pm 29.1 31.2 19.4 55 6.3 NNE 7 9 4 5 1013.0 1012.9 0.0
30/06:30pm 30.7 32.2 18.1 47 8.1 E 7 9 4 5 1012.9 1012.8 0.0
30/06:00pm 31.5 33.0 18.1 44 8.6 ESE 7 15 4 8 1012.9 1012.8 0.0
30/05:30pm 32.2 32.2 17.3 41 9.5 ESE 13 19 7 10 1012.8 1012.7 0.0
30/05:00pm 32.4 32.0 17.1 40 9.7 ESE 15 26 8 14 1012.6 1012.5 0.0
30/04:30pm 32.1 32.7 19.4 47 8.3 SE 15 28 8 15 1012.6 1012.5 0.0
30/04:00pm 32.7 33.1 18.1 42 9.4 SE 13 24 7 13 1012.5 1012.4 0.0
30/03:30pm 33.1 32.1 15.6 35 10.9 SE 15 26 8 14 1012.5 1012.4 0.0
30/03:00pm 33.0 31.6 15.5 35 10.9 SE 17 26 9 14 1012.8 1012.7 0.0
30/02:30pm 33.6 32.2 15.6 34 11.3 SE 17 26 9 14 1013.0 1012.9 0.0
30/02:00pm 33.5 32.1 15.5 34 11.2 ESE 17 24 9 13 1013.3 1013.2 0.0
30/01:30pm 33.1 31.8 16.9 38 10.3 ESE 19 26 10 14 1013.6 1013.5 0.0
30/01:00pm 33.1 31.8 16.9 38 10.3 ESE 19 26 10 14 1013.9 1013.8 0.0
30/12:30pm 33.0 32.2 18.0 41 9.7 ESE 19 28 10 15 1014.3 1014.2 0.0
30/12:00pm 33.0 33.0 20.2 47 8.5 E 20 28 11 15 1014.9 1014.8 0.0
30/11:30am 32.2 32.7 20.1 48 8.0 E 17 24 9 13 1015.5 1015.4 0.0
30/11:00am 32.5 32.8 20.7 49 7.9 E 20 28 11 15 1015.6 1015.5 0.0
30/10:30am 32.2 32.4 20.5 50 7.8 E 20 28 11 15 1015.9 1015.8 0.0
30/10:00am 32.2 32.4 21.4 53 7.3 E 22 30 12 16 1016.1 1016.0 0.0
30/09:30am 31.4 31.2 21.3 55 6.8 ENE 24 33 13 18 1016.1 1016.0 0.0
30/09:00am 30.9 32.3 22.5 61 5.7 ENE 19 28 10 15 1015.8 1015.7 0.0
30/08:30am 29.4 31.8 22.9 68 4.4 ENE 15 22 8 12 1015.5 1015.4 0.0
30/08:00am 28.0 31.0 22.7 73 3.6 ENE 11 13 6 7 1015.2 1015.1 0.0
30/07:30am 26.7 30.2 22.1 76 3.1 SE 7 9 4 5 1014.7 1014.6 0.0
30/07:00am 25.6 28.5 21.7 79 2.6 ESE 9 11 5 6 1014.2 1014.1 0.0
30/06:30am 25.6 27.8 21.9 80 2.5 E 13 15 7 8 1013.8 1013.7 0.0
30/06:00am 24.9 28.2 22.6 87 1.5 E 9 9 5 5 1013.4 1013.3 0.0
30/05:30am 24.6 28.2 22.3 87 1.5 SSE 7 9 4 5 1013.0 1012.9 0.0
30/05:00am 24.9 28.6 22.2 85 1.8 E 6 7 3 4 1012.4 1012.3 0.0
30/04:30am 24.5 27.9 22.0 86 1.7 ENE 7 7 4 4 1012.2 1012.1 0.0
30/04:00am 24.5 29.0 21.6 84 1.9 CALM 0 4 0 2 1011.9 1011.8 0.0
30/03:30am 24.5 27.9 21.6 84 1.9 NNE 6 6 3 3 1011.9 1011.8 0.0
30/03:00am 24.6 29.1 21.5 83 2.1 CALM 0 0 0 0 1011.8 1011.7 0.0
30/02:30am 24.8 29.4 21.7 83 2.1 CALM 0 0 0 0 1012.2 1012.1 0.0
30/02:00am 25.1 29.6 21.6 81 2.3 CALM 0 0 0 0 1012.4 1012.3 0.0
30/01:30am 24.9 28.1 21.2 80 2.4 NNE 6 7 3 4 1012.8 1012.7 0.0
30/01:00am 25.1 28.1 20.8 77 2.8 NNE 6 6 3 3 1013.1 1013.0 0.0
30/12:30am 25.3 28.0 20.3 74 3.3 NE 6 7 3 4 1013.4 1013.3 0.0
30/12:00am 25.3 28.2 19.9 72 3.5 NE 4 6 2 3 1013.5 1013.4 0.0
 
Date/Time
EST
Temp
°C
App
Temp
°C
Dew
Point
Rel
Hum
%
Delta-T
°C
Wind Press
QNH
hPa
Press
MSL
hPa
Rain
since 9 am
mm
Dir
 
Spd
km/h
Gust
km/h
Spd
kts
Gust
kts
29/11:30pm 25.1 27.4 19.5 71 3.6 NE 6 7 3 4 1013.6 1013.5 0.0
29/11:00pm 25.8 28.1 19.9 70 3.8 NE 7 9 4 5 1013.8 1013.7 0.0
29/10:30pm 26.3 27.9 19.9 68 4.2 NE 11 13 6 7 1014.0 1013.9 0.0
29/10:00pm 26.4 28.8 20.9 72 3.6 NE 9 11 5 6 1013.9 1013.8 0.0
29/09:30pm 26.7 29.8 22.1 76 3.1 NNE 9 11 5 6 1013.6 1013.5 0.0
29/09:00pm 26.8 30.1 22.6 78 2.8 NNE 9 11 5 6 1013.5 1013.4 0.0
29/08:30pm 27.2 30.8 23.0 78 2.9 NNE 9 11 5 6 1013.4 1013.3 0.0
29/08:00pm 27.8 31.4 23.0 75 3.3 NNE 9 11 5 6 1013.2 1013.1 0.0
29/07:30pm 28.3 32.3 22.8 72 3.7 NNE 6 7 3 4 1013.0 1012.9 0.0
29/07:00pm 28.8 32.6 22.8 70 4.1 NNW 7 9 4 5 1012.8 1012.7 0.0
29/06:30pm 30.2 33.4 21.6 60 5.8 NNW 7 9 4 5 1012.6 1012.5 0.0
29/06:00pm 32.4 32.0 14.1 33 11.1 ESE 9 15 5 8 1012.5 1012.4 0.0
29/05:30pm 32.9 32.8 15.0 34 11.1 ESE 9 13 5 7 1012.4 1012.3 0.0
29/05:00pm 32.9 35.7 20.8 49 8.1 S 7 13 4 7 1012.2 1012.1 0.0
29/04:30pm 32.5 34.4 21.4 52 7.5 SSE 13 19 7 10 1012.1 1012.0 0.0
29/04:00pm 32.8 34.4 20.7 49 8.1 SE 13 20 7 11 1012.0 1011.9 0.0
29/03:30pm 32.7 34.0 20.2 47 8.3 SE 13 20 7 11 1012.2 1012.1 0.0
29/03:00pm 32.4 33.6 20.6 49 7.9 SSE 15 24 8 13 1012.5 1012.4 0.0
29/02:30pm 32.4 33.6 20.6 49 7.9 SSE 15 22 8 12 1012.7 1012.6 0.0
29/02:00pm 31.8 33.2 21.0 52 7.2 SSE 15 22 8 12 1013.2 1013.1 0.0
29/01:30pm 32.1 33.8 21.0 52 7.4 SSE 13 20 7 11 1013.5 1013.4 0.0
29/01:00pm 31.8 33.2 20.4 51 7.6 SSE 13 22 7 12 1013.9 1013.8 0.0
29/12:30pm 32.1 32.4 19.7 48 8.2 SE 17 24 9 13 1014.4 1014.3 0.0
29/12:00pm 32.0 32.5 20.9 52 7.4 SE 19 26 10 14 1014.7 1014.6 0.0
29/11:30am 31.7 32.0 20.3 50 7.6 ESE 19 26 10 14 1014.9 1014.8 0.0
29/11:00am 31.3 32.4 21.2 55 6.8 ESE 17 26 9 14 1015.3 1015.2 0.0
29/10:30am 29.5 30.6 20.4 58 6.0 ESE 15 20 8 11 1015.5 1015.4 0.0
29/10:00am 28.4 30.5 21.7 67 4.5 E 13 19 7 10 1015.6 1015.5 0.0
29/09:30am 27.5 27.0 21.5 70 4.0 ENE 26 39 14 21 1015.8 1015.7 0.0
29/09:24am 27.5 27.7 22.0 72 3.7 ENE 24 48 13 26 1015.8 1015.7 0.0
29/09:19am 27.7 28.9 21.5 69 4.1 ENE 17 48 9 26 1015.7 1015.6 0.0
29/09:00am 29.2 32.3 23.6 72 3.9 E 13 19 7 10 1015.5 1015.4 7.2
29/08:30am 28.6 31.9 23.9 75 3.2 E 13 15 7 8 1015.3 1015.2 7.2
29/08:00am 27.8 32.2 23.8 79 2.8 ESE 7 9 4 5 1014.9 1014.8 7.2
29/07:30am 26.2 30.6 23.5 85 1.8 ENE 6 7 3 4 1014.3 1014.2 7.2
29/07:00am 25.6 29.6 23.1 86 1.7 E 7 9 4 5 1014.0 1013.9 7.2
29/06:30am 25.5 29.9 22.8 85 1.8 ENE 4 7 2 4 1013.6 1013.5 7.2
29/06:00am 25.9 29.8 23.0 84 2.0 E 7 9 4 5 1013.3 1013.2 7.2
29/05:30am 26.9 32.3 23.2 80 2.5 CALM 0 4 0 2 1012.8 1012.7 7.2
29/05:00am 28.2 32.3 23.3 75 3.4 W 7 11 4 6 1012.2 1012.1 7.2
29/04:30am 28.5 31.3 23.6 75 3.4 W 15 19 8 10 1011.6 1011.5 7.2
29/04:00am 28.5 31.2 23.4 74 3.5 W 15 20 8 11 1011.7 1011.6 7.2
29/03:30am 28.3 31.0 23.4 75 3.4 W 15 19 8 10 1011.7 1011.6 7.2
29/03:00am 28.5 31.3 23.6 75 3.4 WNW 15 20 8 11 1011.8 1011.7 7.2
29/02:30am 28.2 31.0 23.6 76 3.2 WNW 15 20 8 11 1012.0 1011.9 7.2
29/02:00am 28.2 31.5 23.8 77 3.0 NW 13 17 7 9 1012.2 1012.1 7.2
29/01:30am 28.0 31.3 23.8 78 2.9 NW 13 15 7 8 1012.5 1012.4 7.2
29/01:00am 27.3 31.1 23.5 80 2.6 NNW 9 11 5 6 1012.8 1012.7 7.2
29/12:30am 27.3 31.1 23.5 80 2.6 NNW 9 11 5 6 1013.0 1012.9 7.2
29/12:00am 27.1 30.8 23.3 80 2.6 NNW 9 11 5 6 1013.1 1013.0 7.2
 
Date/Time
EST
Temp
°C
App
Temp
°C
Dew
Point
Rel
Hum
%
Delta-T
°C
Wind Press
QNH
hPa
Press
MSL
hPa
Rain
since 9 am
mm
Dir
 
Spd
km/h
Gust
km/h
Spd
kts
Gust
kts
28/11:30pm 27.3 31.0 23.3 79 2.7 N 9 11 5 6 1013.1 1013.0 7.2
28/11:00pm 27.4 30.8 23.4 79 2.7 NNW 11 13 6 7 1013.3 1013.2 7.2
28/10:30pm 27.3 31.0 23.3 79 2.7 N 9 9 5 5 1013.5 1013.4 7.2
28/10:00pm 27.6 31.3 23.2 77 3.0 N 9 11 5 6 1013.5 1013.4 7.2
28/09:30pm 27.7 31.4 23.3 77 3.0 NNW 9 11 5 6 1013.6 1013.5 7.2

Other Formats:

Comma delimited format used in spreadsheet applications
http://www.bom.gov.au/fwo/IDQ60801/IDQ60801.94254.axf

JavaScript Object Notation format (JSON) in row-major order
http://www.bom.gov.au/fwo/IDQ60801/IDQ60801.94254.json